createdAt,value
2023-03-26T00:01:10.244Z,16.3
2023-03-26T00:13:10.163Z,16.4
2023-03-26T00:25:10.230Z,16.2
2023-03-26T00:37:10.174Z,16.2
2023-03-26T00:49:10.285Z,16.2
2023-03-26T01:01:00.290Z,16.2
2023-03-26T01:13:00.298Z,16.2
2023-03-26T01:25:00.201Z,16.1
2023-03-26T01:37:00.396Z,16.1
2023-03-26T01:49:00.307Z,16.1
2023-03-26T02:01:03.705Z,16.1
2023-03-26T02:13:00.221Z,16.1
2023-03-26T02:25:00.403Z,16
2023-03-26T02:37:00.362Z,16
2023-03-26T02:49:00.312Z,16
2023-03-26T03:01:00.270Z,16
2023-03-26T03:13:00.431Z,16
2023-03-26T03:25:00.356Z,16
2023-03-26T03:37:00.395Z,15.9
2023-03-26T03:49:00.499Z,15.9
2023-03-26T04:01:00.453Z,16
2023-03-26T04:13:00.416Z,15.9
2023-03-26T04:25:00.410Z,15.9
2023-03-26T04:37:00.376Z,15.8
2023-03-26T04:49:00.541Z,15.8
2023-03-26T05:01:00.528Z,15.8
2023-03-26T05:13:00.436Z,15.8
2023-03-26T05:25:00.582Z,15.8
2023-03-26T05:37:00.593Z,15.8
2023-03-26T05:49:00.504Z,15.7
2023-03-26T06:01:00.471Z,15.7
2023-03-26T06:13:00.604Z,15.7
2023-03-26T06:25:00.586Z,15.7
2023-03-26T06:37:00.541Z,15.7
2023-03-26T06:49:00.561Z,15.7
2023-03-26T07:01:00.642Z,15.7
2023-03-26T07:13:00.612Z,15.7
2023-03-26T07:25:00.551Z,15.7
2023-03-26T07:37:00.747Z,15.7
2023-03-26T07:49:00.681Z,15.7
2023-03-26T08:01:00.636Z,15.7
2023-03-26T08:13:00.567Z,15.7
2023-03-26T08:25:00.764Z,15.7
2023-03-26T08:37:00.707Z,15.7
2023-03-26T08:49:00.679Z,15.7
2023-03-26T09:01:00.593Z,16
2023-03-26T09:13:00.779Z,16.1
2023-03-26T09:25:00.735Z,16.1
2023-03-26T09:37:00.767Z,16
2023-03-26T09:49:00.856Z,15.9
2023-03-26T10:01:00.861Z,15.9
2023-03-26T10:13:11.852Z,15.9
2023-03-26T10:25:00.747Z,16
2023-03-26T10:37:00.908Z,16.1
2023-03-26T10:49:00.877Z,16
2023-03-26T11:01:01.293Z,16.1
2023-03-26T11:13:00.793Z,16.2
2023-03-26T11:25:00.971Z,16.2
2023-03-26T11:37:00.934Z,16.2
2023-03-26T11:49:00.829Z,16.4
2023-03-26T12:01:01.063Z,16.4
2023-03-26T12:13:00.964Z,16.3
2023-03-26T12:25:01.001Z,16.3
2023-03-26T12:37:00.870Z,16.3
2023-03-26T12:49:01.073Z,16.3
2023-03-26T13:01:00.908Z,16.3
2023-03-26T13:13:01.086Z,16.4
2023-03-26T13:25:01.030Z,16.5
2023-03-26T13:37:01.074Z,16.4
2023-03-26T13:49:01.184Z,16.3
2023-03-26T14:01:01.114Z,16.2
2023-03-26T14:13:01.047Z,16.2
2023-03-26T14:25:01.024Z,16.2
2023-03-26T14:37:00.972Z,16.2
2023-03-26T14:49:01.124Z,16.1
2023-03-26T15:01:04.129Z,16.1
2023-03-26T15:13:01.048Z,16.1
2023-03-26T15:25:01.213Z,16.1
2023-03-26T15:37:01.230Z,16.1
2023-03-26T15:49:01.097Z,16.1
2023-03-26T16:01:01.089Z,15.9
2023-03-26T16:13:01.201Z,16
2023-03-26T16:25:01.178Z,16
2023-03-26T16:37:01.140Z,16.1
2023-03-26T16:49:01.144Z,16.1
2023-03-26T17:25:01.308Z,16.5
2023-03-26T17:37:01.142Z,18.1
2023-03-26T17:49:01.336Z,17.6
2023-03-26T18:01:01.249Z,17.2
2023-03-26T18:13:01.312Z,16.9
2023-03-26T18:25:01.160Z,16.7
2023-03-26T18:37:01.341Z,16.5
2023-03-26T18:49:01.288Z,16.4
2023-03-26T19:01:01.252Z,16.3
2023-03-26T19:13:01.417Z,16.6
2023-03-26T19:25:01.372Z,16.3
2023-03-26T19:37:01.305Z,16.3
2023-03-26T19:49:01.290Z,16.2
2023-03-26T20:01:01.423Z,16.2
2023-03-26T20:13:01.433Z,16.2
2023-03-26T20:25:01.331Z,16.1
2023-03-26T20:37:01.609Z,16.2
2023-03-26T20:49:01.448Z,16.2
2023-03-26T21:01:01.649Z,16.1
2023-03-26T21:13:01.374Z,16
2023-03-26T21:25:01.542Z,16
2023-03-26T21:37:01.478Z,16
2023-03-26T21:49:01.452Z,16.1
2023-03-26T22:01:01.924Z,16.1
2023-03-26T22:13:01.597Z,16
2023-03-26T22:25:01.475Z,16
2023-03-26T22:37:01.469Z,16
2023-03-26T22:49:01.587Z,16
2023-03-26T23:01:01.571Z,16
2023-03-26T23:13:01.530Z,15.9
2023-03-26T23:25:01.484Z,15.8
2023-03-26T23:37:01.608Z,15.8
2023-03-26T23:49:01.598Z,15.8
